createdAt,value
2022-08-07T00:02:36.276Z,101071.16
2022-08-07T00:04:24.640Z,101071.43
2022-08-07T00:06:53.510Z,101074.40
2022-08-07T00:09:29.214Z,101073.97
2022-08-07T00:11:55.390Z,101080.25
2022-08-07T00:14:25.375Z,101082.27
2022-08-07T00:16:53.820Z,101085.35
2022-08-07T00:19:26.017Z,101082.20
2022-08-07T00:21:56.729Z,101085.97
2022-08-07T00:24:23.948Z,101079.65
2022-08-07T00:27:06.102Z,101078.52
2022-08-07T00:29:25.506Z,101083.11
2022-08-07T00:31:57.998Z,101082.74
2022-08-07T00:34:27.484Z,101084.84
2022-08-07T00:36:58.649Z,101083.25
2022-08-07T00:39:29.225Z,101083.34
2022-08-07T00:42:01.330Z,101084.02
2022-08-07T00:44:29.716Z,101080.17
2022-08-07T00:46:59.557Z,101081.84
2022-08-07T00:50:19.216Z,101073.22
2022-08-07T00:51:59.417Z,101074.17
2022-08-07T00:54:28.227Z,101073.41
2022-08-07T00:57:00.874Z,101071.22
2022-08-07T00:59:35.223Z,101072.94
2022-08-07T01:02:02.211Z,101071.62
2022-08-07T01:04:32.815Z,101072.02
2022-08-07T01:07:01.594Z,101074.59
2022-08-07T01:10:05.182Z,101075.39
2022-08-07T01:12:23.969Z,101070.75
2022-08-07T01:14:37.174Z,101078.25
2022-08-07T01:17:07.129Z,101075.22
2022-08-07T01:19:38.540Z,101076.92
2022-08-07T01:22:09.036Z,101081.98
2022-08-07T01:24:42.131Z,101082.08
2022-08-07T01:27:19.477Z,101075.73
2022-08-07T01:29:42.718Z,101075.27
2022-08-07T01:32:13.651Z,101076.41
2022-08-07T01:34:47.425Z,101080.28
2022-08-07T01:37:20.094Z,101078.20
2022-08-07T01:39:50.762Z,101078.97
2022-08-07T01:42:39.888Z,101079.45
2022-08-07T01:44:52.557Z,101074.72
2022-08-07T01:48:20.741Z,101081.16
2022-08-07T01:49:54.645Z,101081.25
2022-08-07T01:52:26.901Z,101086.64
2022-08-07T01:54:57.081Z,101091.28
2022-08-07T01:58:01.015Z,101086.64
2022-08-07T02:00:03.508Z,101093.88
2022-08-07T02:03:19.034Z,101094.44
2022-08-07T02:05:43.160Z,101091.31
2022-08-07T02:08:02.774Z,101096.99
2022-08-07T02:10:35.527Z,101087.06
2022-08-07T02:13:07.762Z,101094.63
2022-08-07T02:15:39.921Z,101089.33
2022-08-07T02:18:10.306Z,101098.88
2022-08-07T02:20:43.266Z,101091.98
2022-08-07T02:23:16.395Z,101093.02
2022-08-07T02:26:30.888Z,101095.76
2022-08-07T02:28:24.595Z,101088.00
2022-08-07T02:30:52.311Z,101095.03
2022-08-07T02:33:21.793Z,101092.67
2022-08-07T02:36:30.865Z,101094.19
2022-08-07T02:38:23.016Z,101089.98
2022-08-07T02:40:56.004Z,101088.50
2022-08-07T02:43:25.121Z,101095.11
2022-08-07T02:46:00.814Z,101091.64
2022-08-07T02:48:28.207Z,101092.39
2022-08-07T02:50:58.335Z,101096.46
2022-08-07T02:53:29.178Z,101096.93
2022-08-07T02:56:03.958Z,101094.75
2022-08-07T02:58:33.325Z,101102.03
2022-08-07T03:01:04.158Z,101102.97
2022-08-07T03:03:50.022Z,101102.13
2022-08-07T03:06:06.452Z,101107.98
2022-08-07T03:08:37.156Z,101102.77
2022-08-07T03:11:06.235Z,101096.62
2022-08-07T03:13:39.016Z,101105.13
2022-08-07T03:16:09.174Z,101097.75
2022-08-07T03:18:38.981Z,101096.05
2022-08-07T03:21:11.423Z,101098.32
2022-08-07T03:24:20.592Z,101099.55
2022-08-07T03:26:20.940Z,101098.79
2022-08-07T03:28:46.949Z,101090.84
2022-08-07T03:31:19.647Z,101097.09
2022-08-07T03:33:53.282Z,101087.87
2022-08-07T03:36:25.894Z,101083.06
2022-08-07T03:38:55.906Z,101083.38
2022-08-07T03:41:42.534Z,101085.94
2022-08-07T03:43:57.737Z,101091.05
2022-08-07T03:46:29.079Z,101091.14
2022-08-07T03:49:02.087Z,101091.43
2022-08-07T03:51:47.938Z,101098.72
2022-08-07T03:54:33.300Z,101099.29
2022-08-07T03:56:37.008Z,101093.23
2022-08-07T03:59:09.214Z,101091.63
2022-08-07T04:01:39.327Z,101099.47
2022-08-07T04:04:10.025Z,101099.28
2022-08-07T04:06:44.341Z,101099.92
2022-08-07T04:09:16.060Z,101098.56
2022-08-07T04:12:25.369Z,101106.27
2022-08-07T04:14:38.987Z,101101.61
2022-08-07T04:16:58.371Z,101104.68
2022-08-07T04:19:21.048Z,101110.56
2022-08-07T04:22:05.377Z,101113.48
2022-08-07T04:24:30.784Z,101114.73
2022-08-07T04:26:56.311Z,101113.64
2022-08-07T04:29:25.900Z,101112.41
2022-08-07T04:32:03.133Z,101110.16
2022-08-07T04:34:33.020Z,101107.70
2022-08-07T04:37:02.223Z,101107.69
2022-08-07T04:39:35.863Z,101105.91
2022-08-07T04:42:04.016Z,101105.31
2022-08-07T04:44:35.931Z,101102.03
2022-08-07T04:47:08.293Z,101103.50
2022-08-07T04:49:47.368Z,101112.95
2022-08-07T04:52:21.437Z,101115.39
2022-08-07T04:54:58.086Z,101117.20
2022-08-07T04:58:16.887Z,101122.59
2022-08-07T05:00:11.933Z,101122.55
2022-08-07T05:02:51.363Z,101133.77
2022-08-07T05:05:52.858Z,101132.44
2022-08-07T05:07:59.321Z,101128.13
2022-08-07T05:10:41.878Z,101126.43
2022-08-07T05:14:54.301Z,101122.23
2022-08-07T05:15:45.959Z,101124.41
2022-08-07T05:18:16.402Z,101128.91
2022-08-07T05:20:46.718Z,101121.24
2022-08-07T05:23:18.471Z,101126.44
2022-08-07T05:26:13.679Z,101128.16
2022-08-07T05:28:23.354Z,101122.01
2022-08-07T05:30:54.926Z,101121.55
2022-08-07T05:33:28.335Z,101127.72
2022-08-07T05:35:57.821Z,101128.27
2022-08-07T05:38:58.400Z,101124.72
2022-08-07T05:41:00.108Z,101122.44
2022-08-07T05:43:50.253Z,101123.34
2022-08-07T05:46:02.140Z,101126.00
2022-08-07T05:48:31.076Z,101124.95
2022-08-07T05:51:02.347Z,101124.77
2022-08-07T05:54:13.413Z,101130.30
2022-08-07T05:56:05.633Z,101126.14
2022-08-07T05:58:40.644Z,101133.84
2022-08-07T06:01:13.264Z,101128.16
2022-08-07T06:03:57.271Z,101131.38
2022-08-07T06:06:22.944Z,101136.81
2022-08-07T06:08:54.899Z,101136.59
2022-08-07T06:11:25.001Z,101133.53
2022-08-07T06:14:11.701Z,101132.51
2022-08-07T06:16:29.243Z,101128.34
2022-08-07T06:18:57.717Z,101133.84
2022-08-07T06:22:15.984Z,101137.02
2022-08-07T06:24:52.302Z,101132.33
2022-08-07T06:26:29.918Z,101132.69
2022-08-07T06:29:01.171Z,101139.67
2022-08-07T06:31:46.985Z,101140.61
2022-08-07T06:34:02.594Z,101140.20
2022-08-07T06:36:35.553Z,101137.40
2022-08-07T06:40:16.941Z,101142.06
2022-08-07T06:42:00.752Z,101139.67
2022-08-07T06:44:10.979Z,101140.66
2022-08-07T06:46:40.630Z,101143.11
2022-08-07T06:49:12.531Z,101140.81
2022-08-07T06:51:43.412Z,101142.16
2022-08-07T06:55:31.624Z,101143.59
2022-08-07T06:56:49.640Z,101144.41
2022-08-07T07:00:13.185Z,101138.02
2022-08-07T07:01:58.823Z,101134.41
2022-08-07T07:04:33.839Z,101136.33
2022-08-07T07:07:01.118Z,101129.50
2022-08-07T07:09:31.874Z,101131.55
2022-08-07T07:12:19.580Z,101130.62
2022-08-07T07:14:47.220Z,101129.45
2022-08-07T07:17:21.204Z,101126.72
2022-08-07T07:19:57.726Z,101120.64
2022-08-07T07:22:36.787Z,101127.27
2022-08-07T07:24:56.927Z,101124.65
2022-08-07T07:27:25.540Z,101131.47
2022-08-07T07:30:09.939Z,101122.81
2022-08-07T07:32:30.111Z,101116.47
2022-08-07T07:35:00.431Z,101125.58
2022-08-07T07:37:49.793Z,101114.02
2022-08-07T07:40:03.015Z,101112.98
2022-08-07T07:42:34.530Z,101112.27
2022-08-07T07:45:05.981Z,101109.20
2022-08-07T07:47:42.863Z,101114.06
2022-08-07T07:50:33.699Z,101106.89
2022-08-07T07:52:47.164Z,101102.19
2022-08-07T07:55:17.460Z,101102.18
2022-08-07T07:57:58.478Z,101098.68
2022-08-07T08:00:29.683Z,101104.33
2022-08-07T08:03:04.690Z,101108.34
2022-08-07T08:05:30.255Z,101104.30
2022-08-07T08:08:01.381Z,101097.84
2022-08-07T08:10:35.533Z,101097.55
2022-08-07T08:13:03.023Z,101104.98
2022-08-07T08:18:17.965Z,101109.94
2022-08-07T08:18:36.381Z,101103.62
2022-08-07T08:20:36.548Z,101106.02
2022-08-07T08:23:27.917Z,101108.41
2022-08-07T08:26:14.425Z,101094.80
2022-08-07T08:28:45.509Z,101106.44
2022-08-07T08:31:18.308Z,101106.09
2022-08-07T08:33:49.584Z,101103.41
2022-08-07T08:36:17.233Z,101107.59
2022-08-07T08:38:47.510Z,101108.14
2022-08-07T08:41:19.297Z,101104.23
2022-08-07T08:43:56.047Z,101104.20
2022-08-07T08:46:44.945Z,101103.05
2022-08-07T08:49:17.820Z,101095.35
2022-08-07T08:52:12.860Z,101108.28
2022-08-07T08:54:31.532Z,101105.56
2022-08-07T08:57:03.363Z,101115.03
2022-08-07T08:59:42.093Z,101107.25
2022-08-07T09:02:10.110Z,101108.34
2022-08-07T09:04:49.550Z,101105.50
2022-08-07T09:07:46.555Z,101099.59
2022-08-07T09:10:08.262Z,101105.13
2022-08-07T09:12:38.668Z,101103.59
2022-08-07T09:16:25.528Z,101108.57
2022-08-07T09:18:08.763Z,101103.56
2022-08-07T09:20:35.176Z,101089.48
2022-08-07T09:24:52.495Z,101094.28
2022-08-07T09:25:42.376Z,101099.48
2022-08-07T09:30:01.263Z,101092.12
2022-08-07T09:31:03.192Z,101090.77
2022-08-07T09:33:57.638Z,101090.47
2022-08-07T09:36:22.680Z,101095.52
2022-08-07T09:38:57.660Z,101094.92
2022-08-07T09:42:03.087Z,101079.66
2022-08-07T09:44:58.686Z,101082.98
2022-08-07T09:47:49.908Z,101093.23
2022-08-07T09:49:59.768Z,101088.09
2022-08-07T09:52:33.693Z,101080.25
2022-08-07T09:54:50.125Z,101081.86
2022-08-07T09:57:21.510Z,101071.57
2022-08-07T10:00:00.639Z,101074.23
2022-08-07T10:02:37.227Z,101068.09
2022-08-07T10:05:29.777Z,101074.59
2022-08-07T10:08:11.924Z,101065.11
2022-08-07T10:11:16.861Z,101059.28
2022-08-07T10:13:29.700Z,101065.49
2022-08-07T10:15:47.699Z,101064.03
2022-08-07T10:18:26.388Z,101046.72
2022-08-07T10:20:51.028Z,101050.78
2022-08-07T10:24:06.227Z,101045.09
2022-08-07T10:26:10.085Z,101052.78
2022-08-07T10:28:49.584Z,101049.08
2022-08-07T10:31:38.497Z,101051.88
2022-08-07T10:34:15.302Z,101051.56
2022-08-07T10:36:38.611Z,101043.70
2022-08-07T10:39:25.664Z,101032.80
2022-08-07T10:42:09.852Z,101038.61
2022-08-07T10:44:45.183Z,101020.66
2022-08-07T10:47:14.425Z,101019.66
2022-08-07T10:49:50.779Z,101025.99
2022-08-07T10:52:22.160Z,101017.75
2022-08-07T10:55:01.284Z,101028.33
2022-08-07T10:57:41.362Z,101023.23
2022-08-07T11:00:36.686Z,101021.31
2022-08-07T11:03:03.018Z,101015.66
2022-08-07T11:05:51.822Z,101008.35
2022-08-07T11:08:41.206Z,101015.56
2022-08-07T11:11:24.100Z,101002.83
2022-08-07T11:14:45.087Z,101000.48
2022-08-07T11:16:41.623Z,101001.77
2022-08-07T11:19:28.983Z,100992.95
2022-08-07T11:22:03.578Z,100992.00
2022-08-07T11:24:51.863Z,100989.48
2022-08-07T11:28:01.742Z,100993.50
2022-08-07T11:30:19.418Z,100992.28
2022-08-07T11:32:50.482Z,100988.19
2022-08-07T11:35:26.778Z,100990.33
2022-08-07T11:38:17.399Z,100982.34
2022-08-07T11:40:53.996Z,100978.78
2022-08-07T11:44:10.990Z,100976.97
2022-08-07T11:46:12.326Z,100979.83
2022-08-07T11:49:28.627Z,100977.57
2022-08-07T11:51:45.078Z,100977.66
2022-08-07T11:54:02.278Z,100972.77
2022-08-07T11:56:52.235Z,100967.02
2022-08-07T12:00:11.670Z,100969.98
2022-08-07T12:02:00.632Z,100967.92
2022-08-07T12:04:43.104Z,100974.83
2022-08-07T12:07:38.591Z,100960.36
2022-08-07T12:10:02.239Z,100960.14
2022-08-07T12:12:41.254Z,100958.25
2022-08-07T12:15:35.855Z,100949.80
2022-08-07T12:17:59.353Z,100957.03
2022-08-07T12:20:30.849Z,100953.86
2022-08-07T12:23:09.202Z,100952.14
2022-08-07T12:26:02.933Z,100952.83
2022-08-07T12:28:37.967Z,100957.22
2022-08-07T12:31:10.027Z,100945.95
2022-08-07T12:33:56.604Z,100948.45
2022-08-07T12:36:13.108Z,100940.70
2022-08-07T12:38:57.046Z,100936.26
2022-08-07T12:41:13.920Z,100930.38
2022-08-07T12:44:02.676Z,100935.67
2022-08-07T12:46:34.877Z,100934.39
2022-08-07T12:49:09.769Z,100924.80
2022-08-07T12:51:51.029Z,100916.59
2022-08-07T12:54:37.704Z,100924.05
2022-08-07T12:56:55.351Z,100921.17
2022-08-07T12:59:30.436Z,100922.03
2022-08-07T13:02:09.808Z,100918.95
2022-08-07T13:04:36.678Z,100915.73
2022-08-07T13:08:11.474Z,100911.45
2022-08-07T13:10:19.347Z,100911.66
2022-08-07T13:12:39.242Z,100912.41
2022-08-07T13:15:14.448Z,100905.95
2022-08-07T13:17:49.901Z,100911.42
2022-08-07T13:20:27.779Z,100901.06
2022-08-07T13:22:54.201Z,100898.32
2022-08-07T13:25:29.760Z,100898.91
2022-08-07T13:28:14.172Z,100893.37
2022-08-07T13:30:39.637Z,100895.81
2022-08-07T13:33:46.042Z,100891.00
2022-08-07T13:35:59.916Z,100891.72
2022-08-07T13:38:15.081Z,100891.67
2022-08-07T13:40:45.676Z,100881.73
2022-08-07T13:43:17.097Z,100876.16
2022-08-07T13:46:10.994Z,100875.08
2022-08-07T13:48:27.787Z,100879.00
2022-08-07T13:51:01.332Z,100871.67
2022-08-07T13:53:24.123Z,100859.97
2022-08-07T13:55:54.319Z,100859.52
2022-08-07T13:58:43.171Z,100855.95
2022-08-07T14:01:15.038Z,100855.01
2022-08-07T14:04:06.741Z,100850.41
2022-08-07T14:06:17.418Z,100857.64
2022-08-07T14:08:53.432Z,100840.02
2022-08-07T14:11:19.393Z,100837.33
2022-08-07T14:13:52.894Z,100846.23
2022-08-07T14:16:31.339Z,100844.22
2022-08-07T14:18:59.216Z,100843.42
2022-08-07T14:22:00.968Z,100843.70
2022-08-07T14:24:07.345Z,100829.38
2022-08-07T14:26:40.731Z,100830.78
2022-08-07T14:30:08.146Z,100828.84
2022-08-07T14:31:56.286Z,100824.97
2022-08-07T14:34:20.147Z,100823.04
2022-08-07T14:36:48.019Z,100816.80
2022-08-07T14:40:14.568Z,100823.78
2022-08-07T14:42:20.168Z,100822.33
2022-08-07T14:44:24.259Z,100826.83
2022-08-07T14:47:08.702Z,100823.87
2022-08-07T14:49:58.406Z,100817.03
2022-08-07T14:57:04.706Z,100822.86
2022-08-07T15:00:05.499Z,100822.41
2022-08-07T15:02:34.159Z,100814.92
2022-08-07T15:04:52.998Z,100811.68
2022-08-07T15:07:17.842Z,100815.91
2022-08-07T15:09:59.293Z,100804.54
2022-08-07T15:12:26.300Z,100807.50
2022-08-07T15:14:57.911Z,100812.95
2022-08-07T15:17:30.222Z,100808.88
2022-08-07T15:20:31.534Z,100806.72
2022-08-07T15:22:33.705Z,100803.03
2022-08-07T15:25:17.615Z,100804.75
2022-08-07T15:27:36.953Z,100802.33
2022-08-07T15:30:16.858Z,100801.20
2022-08-07T15:32:51.098Z,100796.45
2022-08-07T15:35:17.101Z,100799.81
2022-08-07T15:40:33.968Z,100800.64
2022-08-07T15:45:55.859Z,100795.34
2022-08-07T15:48:03.335Z,100790.95
2022-08-07T15:50:37.944Z,100791.23
2022-08-07T15:53:09.173Z,100790.53
2022-08-07T15:55:53.715Z,100789.04
2022-08-07T15:58:21.013Z,100785.39
2022-08-07T16:00:47.206Z,100790.38
2022-08-07T16:03:46.371Z,100779.33
2022-08-07T16:05:53.512Z,100777.42
2022-08-07T16:08:33.090Z,100772.33
2022-08-07T16:10:57.240Z,100778.77
2022-08-07T16:13:57.685Z,100782.71
2022-08-07T16:16:42.777Z,100776.00
2022-08-07T16:18:50.361Z,100774.10
2022-08-07T16:22:01.242Z,100770.67
2022-08-07T16:24:03.960Z,100774.66
2022-08-07T16:26:59.406Z,100768.85
2022-08-07T16:30:10.356Z,100766.59
2022-08-07T16:32:03.986Z,100766.73
2022-08-07T16:34:34.214Z,100774.73
2022-08-07T16:38:03.626Z,100766.21
2022-08-07T16:39:57.264Z,100769.06
2022-08-07T16:42:44.206Z,100768.47
2022-08-07T16:48:07.973Z,100771.82
2022-08-07T16:50:52.798Z,100767.95
2022-08-07T16:53:55.535Z,100766.93
2022-08-07T16:55:55.970Z,100764.86
2022-08-07T16:59:10.330Z,100766.25
2022-08-07T17:01:34.609Z,100771.73
2022-08-07T17:04:24.868Z,100768.28
2022-08-07T17:07:03.986Z,100768.05
2022-08-07T17:10:05.090Z,100768.73
2022-08-07T17:12:33.389Z,100763.75
2022-08-07T17:14:44.629Z,100765.20
2022-08-07T17:17:21.957Z,100768.85
2022-08-07T17:20:01.487Z,100763.59
2022-08-07T17:22:37.533Z,100766.84
2022-08-07T17:25:05.263Z,100766.33
2022-08-07T17:27:51.069Z,100763.98
2022-08-07T17:30:27.007Z,100771.02
2022-08-07T17:32:55.382Z,100777.15
2022-08-07T17:35:55.066Z,100771.38
2022-08-07T17:38:33.283Z,100772.66
2022-08-07T17:42:01.627Z,100773.21
2022-08-07T17:44:03.256Z,100771.38
2022-08-07T17:46:34.502Z,100770.46
2022-08-07T17:49:01.458Z,100769.70
2022-08-07T17:52:00.896Z,100773.61
2022-08-07T17:54:29.902Z,100775.01
2022-08-07T17:56:54.549Z,100778.92
2022-08-07T17:59:44.718Z,100775.27
2022-08-07T18:02:15.126Z,100784.69
2022-08-07T18:04:54.608Z,100784.70
2022-08-07T18:07:34.609Z,100786.90
2022-08-07T18:10:32.575Z,100785.36
2022-08-07T18:16:04.870Z,100783.11
2022-08-07T18:21:03.311Z,100782.42
2022-08-07T18:21:37.219Z,100780.66
2022-08-07T18:24:00.863Z,100793.70
2022-08-07T18:26:32.480Z,100795.94
2022-08-07T18:30:08.443Z,100796.14
2022-08-07T18:31:41.530Z,100795.33
2022-08-07T18:34:34.828Z,100805.07
2022-08-07T18:36:55.286Z,100803.99
2022-08-07T18:40:07.757Z,100804.00
2022-08-07T18:42:15.972Z,100807.53
2022-08-07T18:47:36.005Z,100807.56
2022-08-07T18:50:39.647Z,100812.73
2022-08-07T18:52:54.290Z,100820.13
2022-08-07T18:55:42.626Z,100822.34
2022-08-07T18:58:15.323Z,100822.97
2022-08-07T19:00:54.163Z,100830.13
2022-08-07T19:03:20.779Z,100832.53
2022-08-07T19:06:02.652Z,100829.96
2022-08-07T19:08:27.513Z,100829.19
2022-08-07T19:11:15.535Z,100832.73
2022-08-07T19:13:50.017Z,100832.05
2022-08-07T19:17:06.694Z,100836.05
2022-08-07T19:19:07.247Z,100845.06
2022-08-07T19:21:58.302Z,100846.81
2022-08-07T19:24:30.906Z,100849.76
2022-08-07T19:28:30.086Z,100845.94
2022-08-07T19:31:02.150Z,100845.77
2022-08-07T19:32:18.502Z,100845.98
2022-08-07T19:34:36.149Z,100849.11
2022-08-07T19:37:10.129Z,100856.26
2022-08-07T19:39:40.796Z,100856.70
2022-08-07T19:42:22.491Z,100856.25
2022-08-07T19:44:41.106Z,100859.31
2022-08-07T19:47:14.306Z,100855.13
2022-08-07T19:49:57.934Z,100853.42
2022-08-07T19:52:18.484Z,100854.57
2022-08-07T19:54:56.354Z,100852.84
2022-08-07T19:58:01.618Z,100853.66
2022-08-07T19:59:51.064Z,100849.97
2022-08-07T20:02:51.899Z,100851.09
2022-08-07T20:05:14.171Z,100851.18
2022-08-07T20:07:45.786Z,100856.28
2022-08-07T20:10:37.932Z,100858.22
2022-08-07T20:12:48.560Z,100859.69
2022-08-07T20:15:22.365Z,100861.00
2022-08-07T20:17:56.365Z,100855.73
2022-08-07T20:20:22.502Z,100863.77
2022-08-07T20:22:56.063Z,100865.73
2022-08-07T20:25:25.433Z,100864.66
2022-08-07T20:27:58.583Z,100863.37
2022-08-07T20:30:31.320Z,100867.84
2022-08-07T20:33:01.042Z,100864.46
2022-08-07T20:35:33.511Z,100862.02
2022-08-07T20:38:03.021Z,100870.75
2022-08-07T20:40:34.494Z,100870.67
2022-08-07T20:43:09.563Z,100863.66
2022-08-07T20:46:25.698Z,100869.22
2022-08-07T20:48:06.676Z,100868.41
2022-08-07T20:50:39.276Z,100869.38
2022-08-07T20:53:11.575Z,100872.52
2022-08-07T20:55:42.022Z,100874.81
2022-08-07T20:58:19.336Z,100866.22
2022-08-07T21:00:46.222Z,100874.45
2022-08-07T21:03:16.860Z,100868.28
2022-08-07T21:05:54.827Z,100870.72
2022-08-07T21:08:36.892Z,100868.54
2022-08-07T21:10:51.818Z,100864.55
2022-08-07T21:13:24.757Z,100865.74
2022-08-07T21:16:00.371Z,100866.59
2022-08-07T21:18:33.633Z,100870.58
2022-08-07T21:20:59.388Z,100867.69
2022-08-07T21:23:29.958Z,100866.47
2022-08-07T21:26:03.193Z,100872.03
2022-08-07T21:28:50.942Z,100873.83
2022-08-07T21:32:42.604Z,100876.02
2022-08-07T21:34:04.277Z,100879.16
2022-08-07T21:36:38.844Z,100876.97
2022-08-07T21:39:46.084Z,100881.42
2022-08-07T21:41:52.243Z,100879.94
2022-08-07T21:44:29.919Z,100881.13
2022-08-07T21:46:59.667Z,100888.98
2022-08-07T21:49:29.930Z,100886.42
2022-08-07T21:52:04.833Z,100884.10
2022-08-07T21:54:37.379Z,100870.92
2022-08-07T21:57:31.362Z,100880.45
2022-08-07T22:00:04.138Z,100888.32
2022-08-07T22:02:41.114Z,100885.75
2022-08-07T22:05:12.227Z,100883.57
2022-08-07T22:07:58.495Z,100886.45
2022-08-07T22:10:16.846Z,100883.17
2022-08-07T22:12:47.175Z,100886.91
2022-08-07T22:16:41.423Z,100888.09
2022-08-07T22:17:57.811Z,100887.86
2022-08-07T22:20:44.989Z,100891.00
2022-08-07T22:23:32.048Z,100898.09
2022-08-07T22:26:14.277Z,100900.86
2022-08-07T22:28:53.476Z,100898.90
2022-08-07T22:31:58.937Z,100900.56
2022-08-07T22:33:56.822Z,100900.08
2022-08-07T22:36:31.936Z,100899.70
2022-08-07T22:39:02.517Z,100898.12
2022-08-07T22:42:04.174Z,100890.95
2022-08-07T22:44:12.801Z,100889.38
2022-08-07T22:47:06.162Z,100891.77
2022-08-07T22:49:39.688Z,100885.09
2022-08-07T22:52:37.523Z,100887.25
2022-08-07T22:55:22.853Z,100889.17
2022-08-07T22:57:52.896Z,100890.73
2022-08-07T23:00:28.767Z,100887.01
2022-08-07T23:03:00.791Z,100884.46
2022-08-07T23:06:09.576Z,100878.41
2022-08-07T23:08:24.191Z,100888.91
2022-08-07T23:10:56.113Z,100885.98
2022-08-07T23:13:48.860Z,100888.75
2022-08-07T23:16:46.900Z,100881.75
2022-08-07T23:19:16.260Z,100885.56
2022-08-07T23:21:53.880Z,100881.22
2022-08-07T23:24:30.097Z,100878.67
2022-08-07T23:27:15.513Z,100884.56
2022-08-07T23:30:38.934Z,100877.08
2022-08-07T23:34:19.421Z,100875.67
2022-08-07T23:35:08.944Z,100877.34
2022-08-07T23:38:00.514Z,100873.84
2022-08-07T23:40:15.084Z,100875.48
2022-08-07T23:42:53.378Z,100879.47
2022-08-07T23:46:01.679Z,100879.67
2022-08-07T23:48:10.360Z,100884.23
2022-08-07T23:50:42.582Z,100878.19
2022-08-07T23:53:49.387Z,100881.63
2022-08-07T23:56:03.810Z,100885.95
2022-08-07T23:58:35.215Z,100878.80
